<?xml version="1.0" encoding="UTF-8" standalone="no" ?>
<gpx xmlns="http://www.topografix.com/GPX/1/1" xmlns:xsi="http://www.w3.org/2001/XMLSchema-instance" xsi:schemaLocation="http://www.topografix.com/GPX/1/1 http://www.topografix.com/GPX/1/1/gpx.xsd" version="1.1" creator="VisuGPX - https://www.visugpx.com">
  <metadata>
    <name>Regordane</name>
    <desc><![CDATA[Vista Hcx
Pradelles - La Bastide-Puylaurent
Pluie, vent, froid , départ 4° !
Longue étape, mais belle, beaucoup de revêtement goudronné !
]]></desc>
  </metadata>
  <trk>
    <name><![CDATA[ACTIVE LOG081404]]></name>
    <trkseg>
      <trkpt lat="44.77215" lon="3.87824">
        <ele>1114.065</ele>
        <time>2011-06-01T06:14:04Z</time>
      </trkpt>
      <trkpt lat="44.7721" lon="3.87829">
        <ele>1113.603</ele>
        <time>2011-06-01T06:14:14Z</time>
      </trkpt>
      <trkpt lat="44.77206" lon="3.87834">
        <ele>1113.067</ele>
        <time>2011-06-01T06:14:24Z</time>
      </trkpt>
      <trkpt lat="44.77203" lon="3.87838">
        <ele>1113.635</ele>
        <time>2011-06-01T06:14:34Z</time>
      </trkpt>
      <trkpt lat="44.77201" lon="3.8784">
        <ele>1113.933</ele>
        <time>2011-06-01T06:14:44Z</time>
      </trkpt>
      <trkpt lat="44.77189" lon="3.87847">
        <ele>1113.743</ele>
        <time>2011-06-01T06:14:54Z</time>
      </trkpt>
      <trkpt lat="44.77187" lon="3.87841">
        <ele>1113.397</ele>
        <time>2011-06-01T06:15:04Z</time>
      </trkpt>
      <trkpt lat="44.77187" lon="3.87842">
        <ele>1114.044</ele>
        <time>2011-06-01T06:15:14Z</time>
      </trkpt>
      <trkpt lat="44.77179" lon="3.8784">
        <ele>1114.06</ele>
        <time>2011-06-01T06:15:24Z</time>
      </trkpt>
      <trkpt lat="44.7717" lon="3.87824">
        <ele>1114.678</ele>
        <time>2011-06-01T06:15:34Z</time>
      </trkpt>
      <trkpt lat="44.77169" lon="3.87825">
        <ele>1114.76</ele>
        <time>2011-06-01T06:15:44Z</time>
      </trkpt>
      <trkpt lat="44.77167" lon="3.87834">
        <ele>1114.652</ele>
        <time>2011-06-01T06:15:54Z</time>
      </trkpt>
      <trkpt lat="44.77166" lon="3.87845">
        <ele>1114.224</ele>
        <time>2011-06-01T06:16:04Z</time>
      </trkpt>
      <trkpt lat="44.77167" lon="3.87855">
        <ele>1115.244</ele>
        <time>2011-06-01T06:16:14Z</time>
      </trkpt>
      <trkpt lat="44.77167" lon="3.87872">
        <ele>1115.54</ele>
        <time>2011-06-01T06:16:24Z</time>
      </trkpt>
      <trkpt lat="44.7716" lon="3.87891">
        <ele>1115.244</ele>
        <time>2011-06-01T06:16:34Z</time>
      </trkpt>
      <trkpt lat="44.77157" lon="3.87892">
        <ele>1113.965</ele>
        <time>2011-06-01T06:16:44Z</time>
      </trkpt>
      <trkpt lat="44.77155" lon="3.87891">
        <ele>1114.964</ele>
        <time>2011-06-01T06:16:54Z</time>
      </trkpt>
      <trkpt lat="44.77156" lon="3.87889">
        <ele>1115.104</ele>
        <time>2011-06-01T06:17:04Z</time>
      </trkpt>
      <trkpt lat="44.77151" lon="3.87889">
        <ele>1114.546</ele>
        <time>2011-06-01T06:17:14Z</time>
      </trkpt>
      <trkpt lat="44.77147" lon="3.87888">
        <ele>1114.752</ele>
        <time>2011-06-01T06:17:24Z</time>
      </trkpt>
      <trkpt lat="44.77145" lon="3.87883">
        <ele>1115.138</ele>
        <time>2011-06-01T06:17:34Z</time>
      </trkpt>
      <trkpt lat="44.7714" lon="3.8788">
        <ele>1115.135</ele>
        <time>2011-06-01T06:17:44Z</time>
      </trkpt>
      <trkpt lat="44.77133" lon="3.87876">
        <ele>1115.593</ele>
        <time>2011-06-01T06:17:54Z</time>
      </trkpt>
      <trkpt lat="44.77127" lon="3.87877">
        <ele>1115.31</ele>
        <time>2011-06-01T06:18:04Z</time>
      </trkpt>
      <trkpt lat="44.77121" lon="3.87877">
        <ele>1115.738</ele>
        <time>2011-06-01T06:18:14Z</time>
      </trkpt>
      <trkpt lat="44.77124" lon="3.87879">
        <ele>1115.096</ele>
        <time>2011-06-01T06:18:24Z</time>
      </trkpt>
      <trkpt lat="44.77128" lon="3.87876">
        <ele>1115.859</ele>
        <time>2011-06-01T06:18:34Z</time>
      </trkpt>
      <trkpt lat="44.77128" lon="3.87875">
        <ele>1114.887</ele>
        <time>2011-06-01T06:18:44Z</time>
      </trkpt>
      <trkpt lat="44.77126" lon="3.87875">
        <ele>1115.368</ele>
        <time>2011-06-01T06:18:54Z</time>
      </trkpt>
      <trkpt lat="44.7704" lon="3.88149">
        <ele>1116.005</ele>
        <time>2011-06-01T06:19:04Z</time>
      </trkpt>
      <trkpt lat="44.77034" lon="3.88161">
        <ele>1116.673</ele>
        <time>2011-06-01T06:19:14Z</time>
      </trkpt>
      <trkpt lat="44.77021" lon="3.88171">
        <ele>1115.772</ele>
        <time>2011-06-01T06:19:24Z</time>
      </trkpt>
      <trkpt lat="44.77013" lon="3.88172">
        <ele>1115.249</ele>
        <time>2011-06-01T06:19:31Z</time>
      </trkpt>
      <trkpt lat="44.77011" lon="3.88173">
        <ele>1115.188</ele>
        <time>2011-06-01T06:19:34Z</time>
      </trkpt>
      <trkpt lat="44.7702" lon="3.88189">
        <ele>1115.746</ele>
        <time>2011-06-01T06:19:44Z</time>
      </trkpt>
      <trkpt lat="44.77009" lon="3.88213">
        <ele>1116.446</ele>
        <time>2011-06-01T06:19:54Z</time>
      </trkpt>
      <trkpt lat="44.77011" lon="3.8822">
        <ele>1117.133</ele>
        <time>2011-06-01T06:20:04Z</time>
      </trkpt>
      <trkpt lat="44.76993" lon="3.88232">
        <ele>1115.833</ele>
        <time>2011-06-01T06:20:14Z</time>
      </trkpt>
      <trkpt lat="44.76985" lon="3.88235">
        <ele>1117.011</ele>
        <time>2011-06-01T06:20:24Z</time>
      </trkpt>
      <trkpt lat="44.76968" lon="3.88237">
        <ele>1116.084</ele>
        <time>2011-06-01T06:20:34Z</time>
      </trkpt>
      <trkpt lat="44.76959" lon="3.88233">
        <ele>1115.45</ele>
        <time>2011-06-01T06:20:44Z</time>
      </trkpt>
      <trkpt lat="44.76944" lon="3.88241">
        <ele>1114.826</ele>
        <time>2011-06-01T06:20:54Z</time>
      </trkpt>
      <trkpt lat="44.76928" lon="3.88248">
        <ele>1113.997</ele>
        <time>2011-06-01T06:21:04Z</time>
      </trkpt>
      <trkpt lat="44.76914" lon="3.88251">
        <ele>1113.854</ele>
        <time>2011-06-01T06:21:14Z</time>
      </trkpt>
    </trkseg>
  </trk>
</gpx>